createdAt,value
2023-10-29T00:00:47.324Z,97334.66
2023-10-29T00:04:50.013Z,97448.09
2023-10-29T00:08:52.874Z,97465.25
2023-10-29T00:12:57.483Z,97440.19
2023-10-29T00:17:00.196Z,97420.69
2023-10-29T00:21:03.564Z,97405.00
2023-10-29T00:25:06.640Z,97384.13
2023-10-29T00:29:10.858Z,97364.06
2023-10-29T00:33:14.310Z,97370.50
2023-10-29T00:37:18.536Z,97377.00
2023-10-29T00:41:21.325Z,97373.16
2023-10-29T00:45:25.660Z,97362.56
2023-10-29T00:49:28.774Z,97345.75
2023-10-29T00:53:31.877Z,97341.41
2023-10-29T00:57:34.609Z,97338.66
2023-10-29T01:01:39.036Z,97310.66
2023-10-29T01:05:42.112Z,97312.03
2023-10-29T01:09:47.252Z,97230.06
2023-10-29T01:13:51.043Z,97401.59
2023-10-29T01:17:55.387Z,97400.13
2023-10-29T01:21:58.410Z,97397.59
2023-10-29T01:26:01.141Z,97382.16
2023-10-29T01:30:03.988Z,97385.50
2023-10-29T01:34:08.277Z,97419.41
2023-10-29T01:38:11.111Z,97409.63
2023-10-29T01:42:13.968Z,97400.91
2023-10-29T01:46:16.664Z,97392.56
2023-10-29T01:50:21.008Z,97356.69
2023-10-29T01:54:23.978Z,97343.38
2023-10-29T01:58:26.685Z,97329.09
2023-10-29T02:02:29.502Z,97336.63
2023-10-29T02:06:39.243Z,97376.19
2023-10-29T02:10:42.077Z,97381.59
2023-10-29T02:14:45.212Z,97306.06
2023-10-29T02:18:48.222Z,97305.78
2023-10-29T02:22:52.613Z,97342.00
2023-10-29T02:26:55.434Z,97355.31
2023-10-29T02:30:58.251Z,97359.34
2023-10-29T02:35:01.072Z,97351.22
2023-10-29T02:39:05.680Z,97360.91
2023-10-29T02:43:08.506Z,97304.00
2023-10-29T02:47:11.759Z,97360.59
2023-10-29T02:51:14.554Z,97347.78
2023-10-29T02:55:18.858Z,97346.22
2023-10-29T02:59:23.072Z,97343.56
2023-10-29T03:03:25.876Z,97354.84
2023-10-29T03:07:28.782Z,97354.56
2023-10-29T03:11:33.134Z,97318.09
2023-10-29T03:15:35.934Z,97359.25
2023-10-29T03:19:38.673Z,97363.88
2023-10-29T03:23:41.516Z,97368.75
2023-10-29T03:27:45.834Z,97356.91
2023-10-29T03:31:49.076Z,97352.41
2023-10-29T03:35:51.870Z,97352.78
2023-10-29T03:39:54.733Z,97356.13
2023-10-29T03:43:59.131Z,97361.03
2023-10-29T03:48:02.298Z,97367.75
2023-10-29T03:52:06.963Z,97373.44
2023-10-29T03:56:09.833Z,97399.41
2023-10-29T04:00:15.854Z,97387.75
2023-10-29T04:04:19.795Z,97365.63
2023-10-29T04:08:23.311Z,97404.31
2023-10-29T04:12:29.003Z,97419.03
2023-10-29T04:16:33.428Z,97417.28
2023-10-29T04:20:36.395Z,97420.50
2023-10-29T04:24:39.616Z,97430.50
2023-10-29T04:28:42.285Z,97438.53
2023-10-29T04:32:46.479Z,97434.53
2023-10-29T04:36:53.040Z,97434.31
2023-10-29T04:40:55.763Z,97445.41
2023-10-29T04:44:58.447Z,97439.50
2023-10-29T04:49:02.552Z,97435.59
2023-10-29T04:53:05.385Z,97418.81
2023-10-29T04:57:08.366Z,97434.72
2023-10-29T05:01:11.146Z,97436.00
2023-10-29T05:05:15.587Z,97428.34
2023-10-29T05:09:18.757Z,97435.50
2023-10-29T05:13:21.615Z,97310.59
2023-10-29T05:17:24.528Z,97338.63
2023-10-29T05:21:28.910Z,97366.25
2023-10-29T05:25:31.739Z,97370.28
2023-10-29T05:29:35.361Z,97366.06
2023-10-29T05:33:39.027Z,97370.09
2023-10-29T05:37:43.960Z,97381.97
2023-10-29T05:41:47.130Z,97373.13
2023-10-29T05:45:49.954Z,97381.13
2023-10-29T05:49:52.726Z,97388.69
2023-10-29T05:53:57.514Z,97400.06
2023-10-29T05:58:00.233Z,97403.00
2023-10-29T06:02:02.938Z,97432.13
2023-10-29T06:06:06.106Z,97437.31
2023-10-29T06:10:11.760Z,97441.22
2023-10-29T06:14:14.448Z,97424.56
2023-10-29T06:18:18.072Z,97411.00
2023-10-29T06:22:21.003Z,97407.97
2023-10-29T06:26:25.491Z,97404.72
2023-10-29T06:30:28.222Z,97356.97
2023-10-29T06:34:30.982Z,97343.00
2023-10-29T06:38:34.301Z,97369.50
2023-10-29T06:42:39.224Z,97396.50
2023-10-29T06:46:41.917Z,97415.69
2023-10-29T06:50:44.772Z,97411.91
2023-10-29T06:54:47.796Z,97393.47
2023-10-29T06:58:52.371Z,97398.34
2023-10-29T07:02:55.621Z,97382.44
2023-10-29T07:06:58.378Z,97339.56
2023-10-29T07:11:01.958Z,97309.81
2023-10-29T07:15:07.125Z,97310.31
2023-10-29T07:19:09.951Z,97307.09
2023-10-29T07:23:12.832Z,97339.84
2023-10-29T07:27:15.953Z,97395.97
2023-10-29T07:31:21.743Z,97413.03
2023-10-29T07:35:24.801Z,97408.22
2023-10-29T07:39:28.057Z,97419.50
2023-10-29T07:43:30.721Z,97429.19
2023-10-29T07:47:35.270Z,97426.22
2023-10-29T07:51:38.158Z,97430.44
2023-10-29T07:55:40.953Z,97435.63
2023-10-29T07:59:44.047Z,97437.19
2023-10-29T08:03:49.765Z,97309.22
2023-10-29T08:07:52.604Z,97444.56
2023-10-29T08:11:55.353Z,97395.78
2023-10-29T08:15:58.144Z,97466.56
2023-10-29T08:20:02.320Z,97485.41
2023-10-29T08:24:05.663Z,97486.97
2023-10-29T08:28:09.552Z,97470.47
2023-10-29T08:32:12.378Z,97473.13
2023-10-29T08:36:19.562Z,97443.53
2023-10-29T08:40:22.308Z,97482.81
2023-10-29T08:44:25.141Z,97488.00
2023-10-29T08:48:27.840Z,97491.03
2023-10-29T08:52:32.110Z,97493.75
2023-10-29T08:56:35.026Z,97505.41
2023-10-29T09:00:45.986Z,97487.59
2023-10-29T09:04:53.969Z,97486.81
2023-10-29T09:08:58.078Z,97485.75
2023-10-29T09:13:01.489Z,97486.56
2023-10-29T09:17:04.357Z,97445.22
2023-10-29T09:21:07.233Z,97505.53
2023-10-29T09:25:11.727Z,97499.31
2023-10-29T09:29:14.811Z,97503.34
2023-10-29T09:33:17.775Z,97501.41
2023-10-29T09:37:20.643Z,97504.38
2023-10-29T09:41:25.256Z,97503.16
2023-10-29T09:45:28.923Z,97516.78
2023-10-29T09:49:32.167Z,97487.66
2023-10-29T09:53:36.941Z,97502.97
2023-10-29T09:57:41.832Z,97502.66
2023-10-29T10:01:55.720Z,97509.53
2023-10-29T10:06:01.646Z,97503.38
2023-10-29T10:10:04.604Z,97495.69
2023-10-29T10:14:08.795Z,97485.47
2023-10-29T10:18:14.130Z,97520.03
2023-10-29T10:22:35.411Z,97526.00
2023-10-29T10:26:40.458Z,97494.72
2023-10-29T10:30:44.853Z,97474.69
2023-10-29T10:34:53.217Z,97499.00
2023-10-29T10:38:56.154Z,97511.38
2023-10-29T10:42:58.882Z,97529.72
2023-10-29T10:47:04.797Z,97500.28
2023-10-29T10:51:07.736Z,97531.91
2023-10-29T10:55:26.427Z,97508.94
2023-10-29T10:59:37.303Z,97482.16
2023-10-29T11:03:41.991Z,97474.28
2023-10-29T11:07:46.047Z,97478.69
2023-10-29T11:11:51.944Z,97450.13
2023-10-29T11:15:55.424Z,97486.94
2023-10-29T11:19:59.691Z,97484.38
2023-10-29T11:24:18.559Z,97498.00
2023-10-29T11:28:43.286Z,97486.44
2023-10-29T11:32:47.485Z,97476.41
2023-10-29T11:36:52.288Z,97477.13
2023-10-29T11:40:55.345Z,97484.66
2023-10-29T11:45:35.475Z,97481.75
2023-10-29T11:50:12.453Z,97477.13
2023-10-29T11:54:17.642Z,97477.13
2023-10-29T11:58:24.304Z,97485.19
2023-10-29T12:02:27.376Z,97491.44
2023-10-29T12:06:41.213Z,97487.25
2023-10-29T12:10:48.934Z,97476.34
2023-10-29T12:14:51.815Z,97479.88
2023-10-29T12:18:57.540Z,97482.53
2023-10-29T12:23:04.140Z,97475.28
2023-10-29T12:27:08.646Z,97454.38
2023-10-29T12:31:24.642Z,97453.69
2023-10-29T12:35:36.772Z,97463.28
2023-10-29T12:39:45.885Z,97465.00
2023-10-29T12:43:52.665Z,97460.66
2023-10-29T12:48:15.545Z,97465.66
2023-10-29T12:52:19.967Z,97452.34
2023-10-29T12:56:22.819Z,97482.34
2023-10-29T13:00:26.968Z,97483.25
2023-10-29T13:04:30.246Z,97460.28
2023-10-29T13:08:32.976Z,97317.06
2023-10-29T13:12:38.184Z,97442.94
2023-10-29T13:16:42.839Z,97344.38
2023-10-29T13:20:46.197Z,97452.34
2023-10-29T13:24:49.105Z,97450.47
2023-10-29T13:28:51.943Z,97454.19
2023-10-29T13:32:56.287Z,97444.78
2023-10-29T13:36:59.148Z,97430.28
2023-10-29T13:41:03.601Z,97397.31
2023-10-29T13:45:07.514Z,97436.81
2023-10-29T13:49:11.781Z,97429.47
2023-10-29T13:53:14.846Z,97418.09
2023-10-29T13:57:17.827Z,97400.69
2023-10-29T14:01:21.937Z,97418.69
2023-10-29T14:05:26.413Z,97431.41
2023-10-29T14:09:29.387Z,97424.53
2023-10-29T14:13:32.187Z,97407.56
2023-10-29T14:17:35.048Z,97420.91
2023-10-29T14:21:39.290Z,97380.47
2023-10-29T14:25:41.952Z,97425.41
2023-10-29T14:29:44.882Z,97457.94
2023-10-29T14:33:47.906Z,97457.44
2023-10-29T14:37:54.231Z,97432.75
2023-10-29T14:41:58.219Z,97438.34
2023-10-29T14:46:04.941Z,97479.50
2023-10-29T14:50:09.966Z,97447.94
2023-10-29T14:54:14.379Z,97524.44
2023-10-29T14:58:17.951Z,97501.97
2023-10-29T15:02:20.670Z,97498.84
2023-10-29T15:06:23.562Z,97509.44
2023-10-29T15:10:28.432Z,97502.09
2023-10-29T15:14:31.188Z,97514.25
2023-10-29T15:18:34.001Z,97501.88
2023-10-29T15:22:37.700Z,97531.88
2023-10-29T15:26:41.846Z,97516.19
2023-10-29T15:30:44.644Z,97517.16
2023-10-29T15:34:47.692Z,97531.00
2023-10-29T15:38:51.039Z,97524.44
2023-10-29T15:42:55.544Z,97532.50
2023-10-29T15:46:58.351Z,97539.44
2023-10-29T15:51:02.147Z,97544.34
2023-10-29T15:55:05.612Z,97530.69
2023-10-29T15:59:10.551Z,97529.44
2023-10-29T16:03:13.487Z,97491.88
2023-10-29T16:07:16.310Z,97512.88
2023-10-29T16:11:23.191Z,97527.47
2023-10-29T16:15:28.701Z,97500.41
2023-10-29T16:19:31.545Z,97551.38
2023-10-29T16:23:34.363Z,97568.13
2023-10-29T16:27:37.319Z,97557.34
2023-10-29T16:31:41.625Z,97556.34
2023-10-29T16:35:44.346Z,97576.72
2023-10-29T16:39:47.382Z,97579.19
2023-10-29T16:43:51.199Z,97582.91
2023-10-29T16:47:55.733Z,97456.66
2023-10-29T16:51:59.238Z,97567.59
2023-10-29T16:56:05.781Z,97604.63
2023-10-29T17:00:10.123Z,97610.88
2023-10-29T17:04:14.649Z,97610.97
2023-10-29T17:08:18.004Z,97601.56
2023-10-29T17:12:20.820Z,97624.31
2023-10-29T17:16:23.665Z,97556.72
2023-10-29T17:20:30.129Z,97564.72
2023-10-29T17:24:32.985Z,97627.91
2023-10-29T17:28:35.793Z,97661.41
2023-10-29T17:32:38.550Z,97654.84
2023-10-29T17:36:42.737Z,97641.06
2023-10-29T17:40:45.483Z,97647.34
2023-10-29T17:44:48.413Z,97638.63
2023-10-29T17:48:53.196Z,97671.72
2023-10-29T17:52:57.499Z,97683.09
2023-10-29T17:57:00.365Z,97689.19
2023-10-29T18:01:03.799Z,97672.81
2023-10-29T18:05:06.882Z,97688.81
2023-10-29T18:09:11.485Z,97691.06
2023-10-29T18:13:14.232Z,97698.56
2023-10-29T18:17:19.670Z,97711.19
2023-10-29T18:21:22.506Z,97692.47
2023-10-29T18:25:27.177Z,97709.84
2023-10-29T18:29:30.130Z,97721.44
2023-10-29T18:33:33.630Z,97722.94
2023-10-29T18:37:36.868Z,97720.53
2023-10-29T18:41:41.162Z,97734.19
2023-10-29T18:45:44.017Z,97727.72
2023-10-29T18:49:46.911Z,97729.56
2023-10-29T18:53:49.926Z,97735.00
2023-10-29T18:57:54.139Z,97732.25
2023-10-29T19:01:56.921Z,97721.88
2023-10-29T19:05:59.659Z,97580.06
2023-10-29T19:10:02.525Z,97715.22
2023-10-29T19:14:06.802Z,97734.59
2023-10-29T19:18:09.705Z,97750.75
2023-10-29T19:22:13.860Z,97759.53
2023-10-29T19:26:16.686Z,97750.22
2023-10-29T19:30:21.019Z,97762.63
2023-10-29T19:34:23.904Z,97764.50
2023-10-29T19:38:27.004Z,97778.09
2023-10-29T19:42:29.712Z,97790.22
2023-10-29T19:46:35.099Z,97770.50
2023-10-29T19:50:39.577Z,97781.44
2023-10-29T19:54:42.569Z,97787.94
2023-10-29T19:58:45.673Z,97764.34
2023-10-29T20:02:49.868Z,97796.56
2023-10-29T20:06:52.812Z,97751.22
2023-10-29T20:10:55.481Z,97767.34
2023-10-29T20:14:58.189Z,97787.38
2023-10-29T20:19:02.412Z,97797.63
2023-10-29T20:23:05.147Z,97800.22
2023-10-29T20:27:07.842Z,97802.28
2023-10-29T20:31:10.558Z,97796.88
2023-10-29T20:35:14.731Z,97806.03
2023-10-29T20:39:17.510Z,97815.88
2023-10-29T20:43:20.293Z,97811.03
2023-10-29T20:47:22.964Z,97804.75
2023-10-29T20:51:27.026Z,97812.09
2023-10-29T20:55:30.001Z,97806.56
2023-10-29T20:59:32.662Z,97818.34
2023-10-29T21:03:35.664Z,97821.50
2023-10-29T21:07:42.522Z,97828.41
2023-10-29T21:11:45.255Z,97826.81
2023-10-29T21:15:49.304Z,97836.00
2023-10-29T21:19:52.273Z,97837.25
2023-10-29T21:23:56.329Z,97839.41
2023-10-29T21:27:59.117Z,97840.22
2023-10-29T21:32:01.939Z,97849.94
2023-10-29T21:36:05.989Z,97839.44
2023-10-29T21:40:11.891Z,97836.78
2023-10-29T21:44:15.314Z,97822.16
2023-10-29T21:48:18.660Z,97837.88
2023-10-29T21:52:21.597Z,97849.00
2023-10-29T21:56:25.686Z,97820.84
2023-10-29T22:00:28.588Z,97841.34
2023-10-29T22:04:32.234Z,97846.66
2023-10-29T22:08:35.331Z,97855.97
2023-10-29T22:12:39.480Z,97852.84
2023-10-29T22:16:42.731Z,97849.56
2023-10-29T22:20:45.539Z,97869.91
2023-10-29T22:24:48.640Z,97877.13
2023-10-29T22:28:52.852Z,97899.50
2023-10-29T22:32:55.673Z,97875.78
2023-10-29T22:36:58.642Z,97880.28
2023-10-29T22:41:02.731Z,97879.00
2023-10-29T22:45:08.007Z,97887.44
2023-10-29T22:49:10.787Z,97884.47
2023-10-29T22:53:13.592Z,97886.88
2023-10-29T22:57:16.441Z,97875.72
2023-10-29T23:01:20.988Z,97872.84
2023-10-29T23:05:24.143Z,97876.59
2023-10-29T23:09:27.241Z,97889.53
2023-10-29T23:13:30.288Z,97896.41
2023-10-29T23:17:34.478Z,97896.91
2023-10-29T23:21:37.350Z,97903.69
2023-10-29T23:25:40.727Z,97910.84
2023-10-29T23:29:43.467Z,97912.72
2023-10-29T23:33:47.832Z,97910.56
2023-10-29T23:37:51.409Z,97928.75
2023-10-29T23:41:54.164Z,97925.63
2023-10-29T23:45:57.017Z,97899.22
2023-10-29T23:50:01.277Z,97895.50
2023-10-29T23:54:04.415Z,97899.47
2023-10-29T23:58:07.244Z,97878.84
